首页
METAR-TAF:

METAR-TAF

机场 :

德黑兰, 伊朗

梅赫拉巴德國際機場

纬度: 35-41N, 经度: 051-21E, 海拔: 1204米

当前天气观测

该预报发布于23分钟前的06:30 UTC
风速10节,风向南转南东
温度 19°C
湿度 30%
气压 1023 hPa
能见度10公里或以上
1500米以下无云,无积雨云

METAR: OIII 250630Z 15010KT CAVOK 19/01 Q1023 A3021

时间: 11:23 (06:53 UTC)

预报

该预报发布于1小时和43分钟前的05:10 UTC
预报有效从25日的 06点(UTC)到 26日的 12点(UTC)
风速10节,风向东南
能見度: 7000
短暂存在
从 26日的 06点(UTC)到 26日的 12点(UTC)
少量云层高于3500英尺, 塔状积云.
散云层高于4000英尺

TAF: OIII 250510Z 2506/2612 13005MPS 7000 NSC TEMPO 2606/2612 FEW035TCU SCT040

超过4000个机场的气象观测和天气预报(METAR&TAF报告)。

可查询的气象台以黄色和红色小点在地图上表示。

将鼠标移到小点上方,可查看气象台名称。

然后点击查看天气观测和预报。

如需切换地图:点击带黑十字的绿色按钮放大地图;点击带横线的绿色按钮缩小地图;或者点击绿色箭头查看邻近地区的地图。


METAR-TAF: